createdAt,value
2022-10-24T00:01:15.570Z,98496.81
2022-10-24T00:03:42.913Z,98484.63
2022-10-24T00:06:10.640Z,98491.94
2022-10-24T00:08:38.062Z,98483.28
2022-10-24T00:11:14.186Z,98493.56
2022-10-24T00:13:41.644Z,98500.28
2022-10-24T00:16:09.049Z,98503.41
2022-10-24T00:18:35.984Z,98499.78
2022-10-24T00:21:02.735Z,98505.91
2022-10-24T00:23:29.449Z,98497.63
2022-10-24T00:25:56.457Z,98497.41
2022-10-24T00:28:24.018Z,98504.47
2022-10-24T00:30:52.351Z,98509.31
2022-10-24T00:33:19.821Z,98518.25
2022-10-24T00:35:47.018Z,98510.28
2022-10-24T00:38:14.047Z,98508.34
2022-10-24T00:40:41.616Z,98513.56
2022-10-24T00:43:26.287Z,98521.31
2022-10-24T00:45:58.964Z,98514.47
2022-10-24T00:48:39.034Z,98516.94
2022-10-24T00:51:19.340Z,98524.00
2022-10-24T00:53:48.867Z,98526.78
2022-10-24T00:56:20.752Z,98528.28
2022-10-24T00:58:48.914Z,98523.38
2022-10-24T01:01:16.526Z,98510.50
2022-10-24T01:03:43.447Z,98521.53
2022-10-24T01:06:10.112Z,98525.53
2022-10-24T01:08:48.075Z,98519.94
2022-10-24T01:11:33.560Z,98520.59
2022-10-24T01:14:18.066Z,98518.63
2022-10-24T01:16:51.544Z,98516.38
2022-10-24T01:19:52.000Z,98512.88
2022-10-24T01:22:25.005Z,98506.44
2022-10-24T01:25:43.131Z,98511.13
2022-10-24T01:28:16.241Z,98517.41
2022-10-24T01:30:46.217Z,98511.44
2022-10-24T01:33:33.974Z,98512.59
2022-10-24T01:36:07.667Z,98524.31
2022-10-24T01:38:41.822Z,98511.44
2022-10-24T01:41:09.966Z,98509.16
2022-10-24T01:43:43.485Z,98509.66
2022-10-24T01:46:22.338Z,98494.84
2022-10-24T01:48:53.543Z,98500.25
2022-10-24T01:51:21.829Z,98493.03
2022-10-24T01:53:49.387Z,98480.00
2022-10-24T01:56:16.630Z,98476.59
2022-10-24T01:58:43.429Z,98480.81
2022-10-24T02:01:14.688Z,98482.47
2022-10-24T02:03:55.088Z,98485.25
2022-10-24T02:06:35.585Z,98487.41
2022-10-24T02:09:08.020Z,98492.19
2022-10-24T02:11:35.426Z,98486.59
2022-10-24T02:14:20.789Z,98488.41
2022-10-24T02:16:47.729Z,98491.06
2022-10-24T02:19:14.543Z,98494.22
2022-10-24T02:22:03.623Z,98496.31
2022-10-24T02:24:39.258Z,98495.84
2022-10-24T02:27:28.617Z,98493.22
2022-10-24T02:30:19.193Z,98481.88
2022-10-24T02:32:49.609Z,98483.16
2022-10-24T02:35:19.201Z,98473.28
2022-10-24T02:37:49.908Z,98473.16
2022-10-24T02:40:19.135Z,98472.47
2022-10-24T02:42:48.245Z,98476.13
2022-10-24T02:45:15.885Z,98479.38
2022-10-24T02:47:43.781Z,98473.63
2022-10-24T02:50:11.880Z,98467.53
2022-10-24T02:52:43.452Z,98464.94
2022-10-24T02:55:12.241Z,98471.50
2022-10-24T02:57:40.066Z,98469.03
2022-10-24T03:00:08.224Z,98464.25
2022-10-24T03:02:35.188Z,98461.13
2022-10-24T03:05:02.021Z,98458.16
2022-10-24T03:09:55.520Z,98463.44
2022-10-24T03:12:23.391Z,98464.13
2022-10-24T03:14:50.086Z,98450.94
2022-10-24T03:17:17.334Z,98452.72
2022-10-24T03:19:45.395Z,98450.94
2022-10-24T03:22:12.079Z,98451.44
2022-10-24T03:24:44.500Z,98461.13
2022-10-24T03:27:21.774Z,98456.34
2022-10-24T03:29:48.556Z,98444.53
2022-10-24T03:32:15.424Z,98442.03
2022-10-24T03:34:42.390Z,98443.88
2022-10-24T03:37:09.072Z,98447.97
2022-10-24T03:39:35.949Z,98437.28
2022-10-24T03:42:02.660Z,98439.88
2022-10-24T03:44:29.540Z,98438.09
2022-10-24T03:46:56.386Z,98431.69
2022-10-24T03:49:23.220Z,98437.75
2022-10-24T03:51:50.016Z,98442.72
2022-10-24T03:54:16.838Z,98439.44
2022-10-24T03:56:44.127Z,98437.28
2022-10-24T03:59:10.993Z,98432.19
2022-10-24T04:01:38.048Z,98439.09
2022-10-24T04:04:05.239Z,98436.63
2022-10-24T04:06:36.294Z,98442.41
2022-10-24T04:09:04.254Z,98447.97
2022-10-24T04:11:31.311Z,98448.31
2022-10-24T04:13:58.814Z,98446.31
2022-10-24T04:16:25.633Z,98454.06
2022-10-24T04:18:52.453Z,98461.78
2022-10-24T04:21:21.876Z,98463.75
2022-10-24T04:23:49.612Z,98467.06
2022-10-24T04:26:17.110Z,98465.75
2022-10-24T04:28:44.181Z,98479.88
2022-10-24T04:31:11.016Z,98478.25
2022-10-24T04:33:38.032Z,98472.31
2022-10-24T04:36:05.577Z,98456.53
2022-10-24T04:38:33.586Z,98456.84
2022-10-24T04:41:01.032Z,98471.31
2022-10-24T04:43:27.991Z,98464.72
2022-10-24T04:45:54.757Z,98459.47
2022-10-24T04:48:21.670Z,98462.13
2022-10-24T04:50:48.896Z,98469.81
2022-10-24T04:53:15.989Z,98472.31
2022-10-24T04:55:43.396Z,98470.31
2022-10-24T04:58:10.183Z,98474.09
2022-10-24T05:00:37.292Z,98475.59
2022-10-24T05:03:04.095Z,98475.94
2022-10-24T05:05:31.262Z,98471.16
2022-10-24T05:07:58.138Z,98479.88
2022-10-24T05:10:24.781Z,98480.53
2022-10-24T05:12:51.544Z,98488.09
2022-10-24T05:15:18.855Z,98487.13
2022-10-24T05:17:45.649Z,98479.88
2022-10-24T05:20:12.501Z,98473.47
2022-10-24T05:22:39.352Z,98470.34
2022-10-24T05:25:06.959Z,98468.72
2022-10-24T05:27:33.906Z,98465.06
2022-10-24T05:30:01.060Z,98475.28
2022-10-24T05:32:27.747Z,98470.03
2022-10-24T05:34:54.460Z,98462.63
2022-10-24T05:37:21.285Z,98464.41
2022-10-24T05:39:48.126Z,98473.47
2022-10-24T05:42:15.202Z,98469.38
2022-10-24T05:44:41.965Z,98474.94
2022-10-24T05:47:09.142Z,98470.50
2022-10-24T05:49:36.625Z,98474.94
2022-10-24T05:52:04.059Z,98474.78
2022-10-24T05:54:37.816Z,98465.72
2022-10-24T05:57:15.469Z,98476.13
2022-10-24T05:59:42.355Z,98467.06
2022-10-24T06:02:20.244Z,98464.44
2022-10-24T06:04:48.793Z,98475.28
2022-10-24T06:07:15.535Z,98478.72
2022-10-24T06:09:42.404Z,98477.25
2022-10-24T06:12:10.481Z,98466.72
2022-10-24T06:14:38.305Z,98460.63
2022-10-24T06:17:06.675Z,98455.53
2022-10-24T06:19:34.081Z,98461.63
2022-10-24T06:22:00.965Z,98453.72
2022-10-24T06:24:27.764Z,98456.03
2022-10-24T06:26:54.879Z,98452.88
2022-10-24T06:29:22.012Z,98460.31
2022-10-24T06:31:48.885Z,98479.56
2022-10-24T06:34:16.050Z,98472.66
2022-10-24T06:36:42.818Z,98477.09
2022-10-24T06:39:09.533Z,98484.31
2022-10-24T06:41:36.418Z,98484.50
2022-10-24T06:44:06.626Z,98496.34
2022-10-24T06:46:35.991Z,98491.56
2022-10-24T06:49:02.885Z,98493.03
2022-10-24T06:51:29.582Z,98488.75
2022-10-24T06:53:56.636Z,98498.00
2022-10-24T06:56:23.402Z,98499.47
2022-10-24T06:58:50.144Z,98504.56
2022-10-24T07:01:19.631Z,98513.44
2022-10-24T07:03:47.255Z,98506.22
2022-10-24T07:06:26.142Z,98504.84
2022-10-24T07:08:54.299Z,98509.16
2022-10-24T07:11:21.355Z,98497.63
2022-10-24T07:13:48.742Z,98510.13
2022-10-24T07:16:16.642Z,98511.13
2022-10-24T07:18:43.707Z,98517.03
2022-10-24T07:21:18.182Z,98519.69
2022-10-24T07:23:45.183Z,98526.75
2022-10-24T07:26:15.066Z,98522.94
2022-10-24T07:28:44.399Z,98518.63
2022-10-24T07:31:13.677Z,98510.41
2022-10-24T07:33:40.780Z,98507.09
2022-10-24T07:36:08.025Z,98512.84
2022-10-24T07:38:34.751Z,98516.13
2022-10-24T07:41:06.883Z,98518.09
2022-10-24T07:43:33.951Z,98515.75
2022-10-24T07:48:49.908Z,98531.38
2022-10-24T07:51:17.407Z,98534.66
2022-10-24T07:53:44.168Z,98537.28
2022-10-24T07:56:14.714Z,98540.84
2022-10-24T07:58:42.934Z,98540.31
2022-10-24T08:01:32.261Z,98536.16
2022-10-24T08:03:59.162Z,98537.44
2022-10-24T08:06:30.961Z,98539.38
2022-10-24T08:08:57.665Z,98534.41
2022-10-24T08:11:27.262Z,98533.72
2022-10-24T08:13:55.054Z,98533.38
2022-10-24T08:16:23.138Z,98530.06
2022-10-24T08:18:51.596Z,98530.00
2022-10-24T08:21:19.645Z,98530.47
2022-10-24T08:23:48.396Z,98515.75
2022-10-24T08:26:17.821Z,98521.31
2022-10-24T08:28:46.505Z,98515.69
2022-10-24T08:31:16.972Z,98517.59
2022-10-24T08:33:44.052Z,98516.13
2022-10-24T08:36:19.213Z,98514.25
2022-10-24T08:38:46.132Z,98519.66
2022-10-24T08:41:22.937Z,98499.44
2022-10-24T08:43:49.968Z,98505.19
2022-10-24T08:46:49.219Z,98500.66
2022-10-24T08:49:33.117Z,98497.19
2022-10-24T08:52:23.659Z,98495.72
2022-10-24T08:54:50.945Z,98487.28
2022-10-24T08:57:23.854Z,98495.50
2022-10-24T08:59:52.739Z,98502.03
2022-10-24T09:02:23.206Z,98490.53
2022-10-24T09:04:57.830Z,98492.47
2022-10-24T09:10:28.186Z,98481.16
2022-10-24T09:12:55.044Z,98482.44
2022-10-24T09:15:26.977Z,98475.97
2022-10-24T09:17:56.382Z,98481.19
2022-10-24T09:20:33.555Z,98476.59
2022-10-24T09:23:04.342Z,98479.69
2022-10-24T09:25:34.697Z,98472.94
2022-10-24T09:28:03.529Z,98477.31
2022-10-24T09:30:33.258Z,98474.09
2022-10-24T09:33:12.993Z,98481.69
2022-10-24T09:35:40.469Z,98483.41
2022-10-24T09:38:27.689Z,98479.44
2022-10-24T09:40:56.219Z,98480.28
2022-10-24T09:43:34.197Z,98486.19
2022-10-24T09:46:06.735Z,98485.25
2022-10-24T09:48:50.619Z,98492.91
2022-10-24T09:51:32.691Z,98492.28
2022-10-24T09:54:25.739Z,98491.16
2022-10-24T09:57:12.805Z,98499.22
2022-10-24T10:00:00.558Z,98484.84
2022-10-24T10:02:28.911Z,98478.00
2022-10-24T10:05:25.958Z,98483.16
2022-10-24T10:07:53.274Z,98483.03
2022-10-24T10:10:27.327Z,98484.34
2022-10-24T10:13:03.836Z,98484.16
2022-10-24T10:15:35.444Z,98488.94
2022-10-24T10:18:35.791Z,98477.13
2022-10-24T10:21:09.931Z,98487.19
2022-10-24T10:23:44.704Z,98488.63
2022-10-24T10:26:42.821Z,98479.28
2022-10-24T10:29:36.143Z,98492.19
2022-10-24T10:32:21.074Z,98484.91
2022-10-24T10:34:55.361Z,98488.25
2022-10-24T10:37:28.002Z,98488.94
2022-10-24T10:39:57.551Z,98486.38
2022-10-24T10:42:46.995Z,98483.53
2022-10-24T10:45:48.331Z,98476.84
2022-10-24T10:48:45.097Z,98487.88
2022-10-24T10:51:44.337Z,98494.50
2022-10-24T10:54:40.061Z,98493.09
2022-10-24T10:57:17.306Z,98493.19
2022-10-24T11:00:35.395Z,98487.47
2022-10-24T11:03:10.607Z,98490.53
2022-10-24T11:06:01.769Z,98483.16
2022-10-24T11:09:08.257Z,98485.19
2022-10-24T11:11:39.341Z,98485.59
2022-10-24T11:14:52.098Z,98481.91
2022-10-24T11:17:28.548Z,98479.44
2022-10-24T11:20:20.286Z,98479.66
2022-10-24T11:22:52.125Z,98470.03
2022-10-24T11:25:24.662Z,98476.13
2022-10-24T11:27:58.568Z,98475.91
2022-10-24T11:30:42.272Z,98482.63
2022-10-24T11:33:15.877Z,98473.59
2022-10-24T11:35:56.178Z,98473.78
2022-10-24T11:38:24.611Z,98471.47
2022-10-24T11:40:58.795Z,98465.84
2022-10-24T11:43:31.115Z,98465.63
2022-10-24T11:46:23.004Z,98465.59
2022-10-24T11:48:59.355Z,98462.34
2022-10-24T11:51:45.397Z,98466.22
2022-10-24T11:54:19.570Z,98464.31
2022-10-24T11:56:56.766Z,98476.59
2022-10-24T11:59:24.656Z,98461.06
2022-10-24T12:02:32.922Z,98461.34
2022-10-24T12:05:24.187Z,98462.59
2022-10-24T12:08:13.815Z,98464.66
2022-10-24T12:10:59.399Z,98468.09
2022-10-24T12:14:06.674Z,98468.34
2022-10-24T12:17:06.000Z,98462.59
2022-10-24T12:19:33.461Z,98467.53
2022-10-24T12:22:03.103Z,98468.84
2022-10-24T12:24:33.129Z,98474.22
2022-10-24T12:27:27.614Z,98475.88
2022-10-24T12:30:03.904Z,98470.56
2022-10-24T12:32:45.308Z,98471.38
2022-10-24T12:35:48.574Z,98485.34
2022-10-24T12:38:50.184Z,98488.22
2022-10-24T12:41:37.886Z,98493.56
2022-10-24T12:44:43.481Z,98496.41
2022-10-24T12:47:56.873Z,98498.59
2022-10-24T12:53:36.704Z,98476.72
2022-10-24T12:56:13.089Z,98477.34
2022-10-24T12:58:43.119Z,98481.78
2022-10-24T13:01:26.016Z,98467.47
2022-10-24T13:04:08.044Z,98456.00
2022-10-24T13:07:04.416Z,98452.09
2022-10-24T13:09:58.237Z,98448.13
2022-10-24T13:13:04.516Z,98446.50
2022-10-24T13:16:18.139Z,98446.66
2022-10-24T13:22:32.768Z,98433.75
2022-10-24T13:25:00.939Z,98428.00
2022-10-24T13:27:31.418Z,98433.16
2022-10-24T13:30:04.046Z,98442.63
2022-10-24T13:32:36.436Z,98435.00
2022-10-24T13:35:05.343Z,98437.38
2022-10-24T13:37:35.247Z,98442.88
2022-10-24T13:40:19.830Z,98440.97
2022-10-24T13:42:52.596Z,98455.81
2022-10-24T13:46:00.400Z,98448.25
2022-10-24T13:48:33.727Z,98439.56
2022-10-24T13:51:09.101Z,98434.75
2022-10-24T13:53:44.120Z,98446.09
2022-10-24T13:56:13.709Z,98448.41
2022-10-24T13:58:44.160Z,98439.25
2022-10-24T14:01:25.631Z,98445.69
2022-10-24T14:03:53.675Z,98437.97
2022-10-24T14:06:31.900Z,98449.41
2022-10-24T14:09:07.355Z,98452.78
2022-10-24T14:11:35.585Z,98442.94
2022-10-24T14:14:06.037Z,98441.56
2022-10-24T14:16:34.551Z,98438.09
2022-10-24T14:19:33.712Z,98426.19
2022-10-24T14:22:02.202Z,98449.59
2022-10-24T14:24:31.253Z,98450.88
2022-10-24T14:26:58.961Z,98461.47
2022-10-24T14:29:29.089Z,98458.88
2022-10-24T14:31:59.358Z,98463.75
2022-10-24T14:34:27.127Z,98469.75
2022-10-24T14:36:56.267Z,98461.53
2022-10-24T14:39:25.822Z,98462.34
2022-10-24T14:42:02.912Z,98466.41
2022-10-24T14:44:30.593Z,98462.38
2022-10-24T14:47:19.278Z,98472.22
2022-10-24T14:49:46.356Z,98471.06
2022-10-24T14:52:26.242Z,98475.38
2022-10-24T14:55:09.093Z,98473.78
2022-10-24T14:57:37.063Z,98472.72
2022-10-24T15:00:09.895Z,98481.16
2022-10-24T15:02:42.194Z,98480.16
2022-10-24T15:05:28.117Z,98479.78
2022-10-24T15:08:23.203Z,98480.81
2022-10-24T15:10:50.469Z,98477.34
2022-10-24T15:13:22.057Z,98480.63
2022-10-24T15:15:59.615Z,98477.34
2022-10-24T15:18:31.647Z,98483.72
2022-10-24T15:21:11.294Z,98484.72
2022-10-24T15:23:46.018Z,98488.03
2022-10-24T15:26:20.211Z,98487.41
2022-10-24T15:29:10.203Z,98490.28
2022-10-24T15:31:39.767Z,98493.78
2022-10-24T15:34:11.901Z,98487.22
2022-10-24T15:36:43.144Z,98487.84
2022-10-24T15:39:21.756Z,98496.03
2022-10-24T15:41:48.695Z,98490.09
2022-10-24T15:44:25.788Z,98485.22
2022-10-24T15:46:53.809Z,98499.13
2022-10-24T15:49:20.671Z,98492.16
2022-10-24T15:51:50.363Z,98493.81
2022-10-24T15:54:19.162Z,98503.22
2022-10-24T15:56:45.901Z,98494.63
2022-10-24T15:59:12.734Z,98502.41
2022-10-24T16:01:44.745Z,98513.22
2022-10-24T16:04:11.670Z,98514.28
2022-10-24T16:06:38.549Z,98519.41
2022-10-24T16:09:10.931Z,98507.31
2022-10-24T16:11:37.716Z,98522.84
2022-10-24T16:14:05.740Z,98527.34
2022-10-24T16:16:32.642Z,98524.06
2022-10-24T16:18:59.349Z,98530.19
2022-10-24T16:21:26.172Z,98529.19
2022-10-24T16:23:53.084Z,98530.19
2022-10-24T16:26:19.797Z,98531.81
2022-10-24T16:28:46.660Z,98537.56
2022-10-24T16:31:18.737Z,98533.19
2022-10-24T16:33:48.674Z,98541.38
2022-10-24T16:36:18.477Z,98529.72
2022-10-24T16:38:47.707Z,98545.00
2022-10-24T16:41:19.502Z,98536.22
2022-10-24T16:43:49.130Z,98541.09
2022-10-24T16:46:19.391Z,98536.56
2022-10-24T16:48:46.542Z,98532.28
2022-10-24T16:51:16.541Z,98537.59
2022-10-24T16:53:43.782Z,98530.00
2022-10-24T16:56:11.857Z,98538.53
2022-10-24T16:58:39.667Z,98534.41
2022-10-24T17:01:08.985Z,98544.47
2022-10-24T17:03:36.239Z,98546.13
2022-10-24T17:06:03.664Z,98533.59
2022-10-24T17:08:30.838Z,98549.31
2022-10-24T17:10:58.019Z,98547.66
2022-10-24T17:13:25.640Z,98545.66
2022-10-24T17:15:53.381Z,98552.38
2022-10-24T17:18:22.557Z,98554.38
2022-10-24T17:20:49.770Z,98559.63
2022-10-24T17:23:19.734Z,98560.88
2022-10-24T17:25:46.751Z,98558.59
2022-10-24T17:28:14.892Z,98570.63
2022-10-24T17:30:42.840Z,98561.63
2022-10-24T17:33:13.913Z,98569.69
2022-10-24T17:35:48.458Z,98571.53
2022-10-24T17:38:35.283Z,98574.72
2022-10-24T17:41:13.380Z,98570.75
2022-10-24T17:43:40.438Z,98574.63
2022-10-24T17:46:12.058Z,98579.16
2022-10-24T17:48:39.232Z,98583.84
2022-10-24T17:51:06.223Z,98585.41
2022-10-24T17:53:32.948Z,98582.56
2022-10-24T17:55:59.798Z,98575.56
2022-10-24T17:58:26.675Z,98583.75
2022-10-24T18:00:53.585Z,98586.19
2022-10-24T18:03:20.466Z,98586.66
2022-10-24T18:05:47.379Z,98591.78
2022-10-24T18:08:14.807Z,98587.88
2022-10-24T18:10:41.814Z,98602.41
2022-10-24T18:13:09.113Z,98600.53
2022-10-24T18:15:36.953Z,98609.38
2022-10-24T18:18:04.406Z,98608.50
2022-10-24T18:20:32.421Z,98606.72
2022-10-24T18:22:59.711Z,98598.59
2022-10-24T18:25:26.573Z,98609.13
2022-10-24T18:27:53.378Z,98613.91
2022-10-24T18:30:20.307Z,98620.13
2022-10-24T18:32:47.505Z,98616.44
2022-10-24T18:35:15.587Z,98613.72
2022-10-24T18:37:42.471Z,98623.13
2022-10-24T18:40:10.397Z,98621.59
2022-10-24T18:42:52.672Z,98620.78
2022-10-24T18:45:22.395Z,98618.94
2022-10-24T18:47:50.139Z,98624.03
2022-10-24T18:50:20.204Z,98620.19
2022-10-24T18:53:23.289Z,98623.47
2022-10-24T18:55:50.694Z,98627.59
2022-10-24T18:58:19.307Z,98621.28
2022-10-24T19:00:47.161Z,98633.53
2022-10-24T19:03:35.866Z,98632.88
2022-10-24T19:06:25.747Z,98636.38
2022-10-24T19:08:52.808Z,98626.88
2022-10-24T19:11:20.046Z,98633.38
2022-10-24T19:13:47.029Z,98636.03
2022-10-24T19:16:28.684Z,98626.97
2022-10-24T19:18:58.328Z,98628.66
2022-10-24T19:21:26.512Z,98633.66
2022-10-24T19:23:53.570Z,98633.00
2022-10-24T19:26:20.612Z,98624.91
2022-10-24T19:28:47.488Z,98636.28
2022-10-24T19:31:15.224Z,98634.03
2022-10-24T19:33:42.418Z,98629.91
2022-10-24T19:36:09.878Z,98629.00
2022-10-24T19:38:37.225Z,98639.94
2022-10-24T19:41:07.551Z,98635.81
2022-10-24T19:43:34.815Z,98641.84
2022-10-24T19:46:19.280Z,98635.09
2022-10-24T19:48:49.534Z,98640.19
2022-10-24T19:51:18.078Z,98632.63
2022-10-24T19:53:46.040Z,98647.53
2022-10-24T19:56:20.181Z,98638.81
2022-10-24T19:58:49.653Z,98645.97
2022-10-24T20:01:19.722Z,98650.81
2022-10-24T20:03:48.163Z,98651.44
2022-10-24T20:06:15.715Z,98649.81
2022-10-24T20:08:42.964Z,98644.94
2022-10-24T20:11:10.082Z,98645.66
2022-10-24T20:13:36.896Z,98656.06
2022-10-24T20:16:06.221Z,98654.78
2022-10-24T20:18:35.296Z,98657.06
2022-10-24T20:21:04.407Z,98654.69
2022-10-24T20:23:31.821Z,98652.13
2022-10-24T20:26:07.790Z,98661.88
2022-10-24T20:28:36.688Z,98657.41
2022-10-24T20:31:03.896Z,98670.47
2022-10-24T20:33:30.718Z,98663.34
2022-10-24T20:36:01.602Z,98670.28
2022-10-24T20:38:29.160Z,98672.81
2022-10-24T20:41:01.405Z,98663.53
2022-10-24T20:43:29.065Z,98665.59
2022-10-24T20:45:55.762Z,98671.19
2022-10-24T20:48:22.858Z,98675.22
2022-10-24T20:50:49.788Z,98680.47
2022-10-24T20:53:16.679Z,98676.59
2022-10-24T20:55:44.747Z,98668.25
2022-10-24T20:58:13.814Z,98677.72
2022-10-24T21:03:27.959Z,98681.13
2022-10-24T21:05:54.696Z,98686.38
2022-10-24T21:08:21.430Z,98692.28
2022-10-24T21:10:48.197Z,98690.94
2022-10-24T21:13:15.059Z,98694.31
2022-10-24T21:15:41.928Z,98688.94
2022-10-24T21:18:08.647Z,98690.56
2022-10-24T21:20:36.128Z,98697.91
2022-10-24T21:23:02.793Z,98682.63
2022-10-24T21:25:29.913Z,98699.47
2022-10-24T21:27:56.784Z,98695.75
2022-10-24T21:30:23.583Z,98696.53
2022-10-24T21:32:50.460Z,98702.00
2022-10-24T21:35:17.295Z,98711.53
2022-10-24T21:37:44.374Z,98705.50
2022-10-24T21:40:11.828Z,98708.03
2022-10-24T21:42:38.615Z,98701.03
2022-10-24T21:45:06.097Z,98712.53
2022-10-24T21:47:32.838Z,98709.16
2022-10-24T21:49:59.609Z,98708.81
2022-10-24T21:52:26.766Z,98707.88
2022-10-24T21:54:53.552Z,98701.03
2022-10-24T21:57:20.227Z,98702.00
2022-10-24T21:59:47.006Z,98710.63
2022-10-24T22:02:13.852Z,98711.81
2022-10-24T22:04:40.739Z,98725.22
2022-10-24T22:07:07.491Z,98719.63
2022-10-24T22:09:34.297Z,98722.88
2022-10-24T22:12:01.167Z,98720.19
2022-10-24T22:14:27.911Z,98733.34
2022-10-24T22:16:54.808Z,98739.13
2022-10-24T22:19:21.777Z,98735.31
2022-10-24T22:21:50.095Z,98732.41
2022-10-24T22:24:22.321Z,98740.06
2022-10-24T22:26:49.574Z,98734.31
2022-10-24T22:29:19.159Z,98743.78
2022-10-24T22:31:46.718Z,98744.16
2022-10-24T22:34:17.426Z,98738.88
2022-10-24T22:37:16.347Z,98748.53
2022-10-24T22:39:43.585Z,98749.56
2022-10-24T22:42:13.572Z,98755.47
2022-10-24T22:44:43.819Z,98758.47
2022-10-24T22:47:45.903Z,98754.59
2022-10-24T22:50:21.991Z,98740.75
2022-10-24T22:52:50.080Z,98756.41
2022-10-24T22:55:31.893Z,98748.34
2022-10-24T22:57:59.003Z,98757.44
2022-10-24T23:00:26.398Z,98764.09
2022-10-24T23:03:04.419Z,98761.69
2022-10-24T23:05:37.070Z,98758.75
2022-10-24T23:08:06.919Z,98760.97
2022-10-24T23:10:34.406Z,98762.50
2022-10-24T23:13:01.725Z,98762.03
2022-10-24T23:15:29.000Z,98764.91
2022-10-24T23:17:55.909Z,98765.72
2022-10-24T23:20:33.131Z,98769.03
2022-10-24T23:23:16.592Z,98771.56
2022-10-24T23:25:53.190Z,98765.28
2022-10-24T23:28:29.514Z,98780.41
2022-10-24T23:30:56.710Z,98776.03
2022-10-24T23:33:29.610Z,98783.06
2022-10-24T23:35:59.475Z,98782.59
2022-10-24T23:38:27.133Z,98791.03
2022-10-24T23:40:54.325Z,98791.03
2022-10-24T23:43:22.113Z,98790.59
2022-10-24T23:45:58.100Z,98790.78
2022-10-24T23:49:03.021Z,98792.47
2022-10-24T23:51:42.406Z,98791.16
2022-10-24T23:54:11.120Z,98795.75
2022-10-24T23:56:38.631Z,98792.16
2022-10-24T23:59:05.731Z,98794.16
